createdAt,value
2023-06-25T00:01:19.854Z,18.17
2023-06-25T00:03:46.860Z,18.21
2023-06-25T00:06:13.951Z,18.20
2023-06-25T00:08:40.902Z,18.15
2023-06-25T00:11:07.915Z,18.12
2023-06-25T00:13:34.932Z,18.10
2023-06-25T00:16:04.100Z,18.12
2023-06-25T00:18:31.050Z,18.16
2023-06-25T00:20:58.142Z,18.14
2023-06-25T00:23:25.066Z,18.17
2023-06-25T00:25:53.090Z,18.13
2023-06-25T00:28:20.180Z,18.14
2023-06-25T00:30:47.454Z,18.13
2023-06-25T00:33:14.773Z,18.14
2023-06-25T00:35:50.932Z,18.13
2023-06-25T00:38:21.524Z,18.13
2023-06-25T00:40:48.566Z,17.96
2023-06-25T00:43:17.415Z,18.01
2023-06-25T00:45:44.817Z,18.05
2023-06-25T00:48:12.362Z,18.08
2023-06-25T00:50:39.524Z,18.12
2023-06-25T00:53:10.103Z,18.21
2023-06-25T00:55:38.397Z,18.27
2023-06-25T00:58:06.320Z,18.28
2023-06-25T01:00:35.343Z,18.29
2023-06-25T01:03:13.889Z,18.31
2023-06-25T01:05:45.085Z,18.37
2023-06-25T01:08:12.527Z,18.39
2023-06-25T01:10:40.224Z,18.40
2023-06-25T01:13:08.644Z,18.42
2023-06-25T01:15:36.398Z,18.44
2023-06-25T01:18:04.187Z,18.44
2023-06-25T01:20:31.171Z,18.45
2023-06-25T01:22:58.912Z,18.42
2023-06-25T01:25:26.318Z,18.43
2023-06-25T01:27:53.356Z,18.45
2023-06-25T01:30:21.730Z,18.45
2023-06-25T01:32:48.825Z,18.42
2023-06-25T01:35:16.702Z,18.47
2023-06-25T01:37:43.758Z,18.46
2023-06-25T01:40:11.711Z,18.46
2023-06-25T01:42:38.690Z,18.46
2023-06-25T01:45:06.859Z,18.48
2023-06-25T01:47:34.260Z,18.53
2023-06-25T01:50:01.414Z,18.37
2023-06-25T01:52:28.485Z,18.46
2023-06-25T01:54:55.330Z,18.51
2023-06-25T01:57:23.020Z,18.45
2023-06-25T01:59:50.185Z,18.45
2023-06-25T02:02:20.970Z,18.51
2023-06-25T02:04:48.219Z,18.51
2023-06-25T02:07:15.228Z,18.57
2023-06-25T02:09:43.080Z,18.56
2023-06-25T02:12:10.272Z,18.55
2023-06-25T02:14:38.025Z,18.55
2023-06-25T02:17:05.352Z,18.56
2023-06-25T02:19:32.642Z,18.58
2023-06-25T02:21:59.610Z,18.55
2023-06-25T02:24:26.766Z,18.55
2023-06-25T02:26:53.781Z,18.58
2023-06-25T02:29:20.754Z,18.60
2023-06-25T02:31:47.762Z,18.60
2023-06-25T02:34:17.667Z,18.59
2023-06-25T02:36:44.902Z,18.56
2023-06-25T02:39:11.998Z,18.56
2023-06-25T02:41:39.196Z,18.56
2023-06-25T02:44:06.182Z,18.58
2023-06-25T02:46:33.192Z,18.60
2023-06-25T02:49:00.250Z,18.59
2023-06-25T02:51:28.017Z,18.59
2023-06-25T02:53:55.160Z,18.55
2023-06-25T02:56:22.159Z,18.60
2023-06-25T02:58:49.101Z,18.62
2023-06-25T03:01:16.048Z,18.62
2023-06-25T03:03:43.402Z,18.66
2023-06-25T03:06:10.463Z,18.79
2023-06-25T03:08:37.583Z,18.82
2023-06-25T03:11:04.750Z,18.74
2023-06-25T03:13:31.778Z,18.70
2023-06-25T03:15:58.711Z,18.62
2023-06-25T03:18:25.740Z,18.63
2023-06-25T03:20:52.834Z,18.62
2023-06-25T03:23:20.148Z,18.62
2023-06-25T03:25:49.627Z,18.62
2023-06-25T03:28:29.936Z,18.62
2023-06-25T03:30:57.004Z,18.62
2023-06-25T03:33:24.138Z,18.62
2023-06-25T03:35:51.300Z,18.62
2023-06-25T03:38:18.383Z,18.64
2023-06-25T03:40:46.104Z,18.68
2023-06-25T03:43:13.099Z,18.70
2023-06-25T03:45:40.550Z,18.67
2023-06-25T03:48:07.723Z,18.70
2023-06-25T03:50:34.851Z,18.73
2023-06-25T03:53:02.338Z,18.77
2023-06-25T03:55:31.687Z,18.73
2023-06-25T03:57:58.774Z,18.68
2023-06-25T04:00:27.631Z,18.71
2023-06-25T04:02:54.610Z,18.71
2023-06-25T04:05:21.548Z,18.70
2023-06-25T04:07:48.494Z,18.71
2023-06-25T04:10:15.972Z,18.73
2023-06-25T04:12:43.917Z,18.73
2023-06-25T04:15:12.582Z,18.71
2023-06-25T04:17:41.071Z,18.73
2023-06-25T04:20:09.513Z,18.72
2023-06-25T04:22:36.849Z,18.74
2023-06-25T04:25:04.022Z,18.81
2023-06-25T04:27:30.974Z,18.81
2023-06-25T04:29:58.413Z,18.84
2023-06-25T04:32:26.979Z,18.88
2023-06-25T04:34:53.993Z,18.87
2023-06-25T04:37:20.936Z,18.87
2023-06-25T04:39:48.014Z,18.88
2023-06-25T04:42:15.542Z,18.89
2023-06-25T04:44:42.519Z,18.96
2023-06-25T04:47:09.574Z,18.98
2023-06-25T04:49:36.677Z,19.06
2023-06-25T04:52:04.695Z,19.07
2023-06-25T04:54:31.860Z,19.04
2023-06-25T04:56:58.761Z,19.09
2023-06-25T04:59:25.620Z,19.10
2023-06-25T05:01:52.928Z,19.09
2023-06-25T05:04:19.907Z,19.09
2023-06-25T05:06:46.908Z,19.06
2023-06-25T05:09:14.061Z,19.09
2023-06-25T05:11:41.021Z,19.10
2023-06-25T05:14:07.981Z,19.19
2023-06-25T05:16:35.017Z,19.16
2023-06-25T05:19:01.931Z,19.14
2023-06-25T05:21:29.050Z,19.16
2023-06-25T05:24:01.037Z,19.20
2023-06-25T05:26:29.069Z,19.21
2023-06-25T05:28:56.458Z,19.25
2023-06-25T05:31:23.651Z,19.26
2023-06-25T05:33:50.900Z,19.29
2023-06-25T05:36:18.519Z,19.32
2023-06-25T05:38:45.418Z,19.34
2023-06-25T05:41:12.604Z,19.38
2023-06-25T05:43:39.993Z,19.44
2023-06-25T05:46:07.193Z,19.51
2023-06-25T05:48:34.122Z,19.58
2023-06-25T05:51:01.069Z,19.63
2023-06-25T05:53:28.222Z,19.67
2023-06-25T05:55:55.657Z,19.77
2023-06-25T05:58:23.394Z,19.83
2023-06-25T06:00:51.507Z,19.88
2023-06-25T06:03:19.551Z,19.93
2023-06-25T06:05:47.995Z,20.02
2023-06-25T06:08:14.985Z,20.08
2023-06-25T06:10:41.857Z,20.11
2023-06-25T06:13:08.832Z,20.21
2023-06-25T06:15:36.187Z,20.29
2023-06-25T06:18:03.355Z,20.37
2023-06-25T06:20:30.302Z,20.46
2023-06-25T06:22:59.191Z,20.54
2023-06-25T06:25:26.861Z,20.61
2023-06-25T06:27:56.279Z,20.65
2023-06-25T06:30:23.306Z,20.49
2023-06-25T06:32:50.608Z,20.49
2023-06-25T06:35:17.577Z,20.58
2023-06-25T06:37:44.636Z,20.69
2023-06-25T06:40:12.066Z,20.84
2023-06-25T06:42:39.095Z,20.92
2023-06-25T06:45:06.788Z,21.05
2023-06-25T06:47:34.182Z,21.11
2023-06-25T06:50:01.802Z,21.12
2023-06-25T06:52:29.383Z,21.20
2023-06-25T06:54:57.290Z,21.27
2023-06-25T06:57:24.612Z,21.19
2023-06-25T06:59:58.034Z,21.14
2023-06-25T07:02:25.182Z,21.14
2023-06-25T07:04:52.966Z,21.15
2023-06-25T07:07:20.203Z,21.21
2023-06-25T07:09:52.257Z,21.19
2023-06-25T07:12:19.652Z,21.17
2023-06-25T07:14:46.770Z,21.26
2023-06-25T07:17:13.932Z,21.28
2023-06-25T07:19:41.044Z,21.35
2023-06-25T07:22:08.277Z,21.41
2023-06-25T07:24:35.277Z,21.46
2023-06-25T07:27:02.547Z,21.46
2023-06-25T07:29:29.793Z,21.59
2023-06-25T07:31:56.938Z,21.64
2023-06-25T07:34:24.174Z,21.72
2023-06-25T07:36:51.129Z,21.76
2023-06-25T07:39:30.514Z,21.77
2023-06-25T07:41:58.433Z,21.85
2023-06-25T07:44:46.049Z,21.78
2023-06-25T07:47:12.603Z,21.85
2023-06-25T07:49:57.375Z,21.87
2023-06-25T07:52:24.273Z,21.87
2023-06-25T07:54:51.219Z,21.92
2023-06-25T07:57:18.161Z,21.92
2023-06-25T07:59:51.801Z,21.89
2023-06-25T08:02:22.322Z,21.84
2023-06-25T08:04:50.261Z,21.95
2023-06-25T08:07:18.377Z,21.95
2023-06-25T08:09:46.809Z,21.99
2023-06-25T08:12:16.101Z,22.01
2023-06-25T08:14:44.070Z,22.01
2023-06-25T08:17:11.041Z,22.08
2023-06-25T08:19:38.505Z,22.17
2023-06-25T08:22:05.750Z,22.22
2023-06-25T08:24:32.767Z,22.29
2023-06-25T08:26:59.773Z,22.20
2023-06-25T08:29:27.600Z,22.19
2023-06-25T08:31:55.563Z,22.23
2023-06-25T08:34:22.578Z,22.31
2023-06-25T08:36:49.435Z,22.34
2023-06-25T08:39:16.307Z,22.35
2023-06-25T08:41:43.499Z,22.40
2023-06-25T08:44:10.675Z,22.42
2023-06-25T08:46:38.131Z,22.48
2023-06-25T08:49:06.484Z,22.53
2023-06-25T08:51:33.541Z,22.62
2023-06-25T08:54:00.723Z,22.71
2023-06-25T08:56:27.682Z,22.66
2023-06-25T08:58:54.713Z,22.77
2023-06-25T09:01:22.448Z,22.84
2023-06-25T09:03:49.541Z,22.96
2023-06-25T09:06:17.476Z,23.01
2023-06-25T09:08:44.804Z,23.06
2023-06-25T09:11:12.301Z,23.12
2023-06-25T09:13:40.282Z,23.19
2023-06-25T09:16:11.511Z,23.28
2023-06-25T09:18:38.913Z,23.15
2023-06-25T09:21:08.003Z,23.13
2023-06-25T09:23:37.223Z,23.21
2023-06-25T09:26:06.409Z,23.26
2023-06-25T09:28:33.529Z,23.19
2023-06-25T09:31:01.898Z,23.12
2023-06-25T09:33:34.421Z,23.24
2023-06-25T09:36:07.984Z,23.27
2023-06-25T09:38:47.410Z,23.20
2023-06-25T09:41:16.693Z,23.30
2023-06-25T09:43:44.479Z,23.23
2023-06-25T09:46:12.532Z,23.28
2023-06-25T09:48:40.216Z,23.31
2023-06-25T09:51:08.396Z,23.31
2023-06-25T09:53:37.785Z,23.31
2023-06-25T09:56:06.532Z,23.33
2023-06-25T09:58:33.481Z,23.40
2023-06-25T10:01:00.487Z,23.38
2023-06-25T10:03:27.902Z,23.40
2023-06-25T10:05:55.072Z,23.42
2023-06-25T10:08:22.552Z,23.57
2023-06-25T10:11:05.391Z,23.58
2023-06-25T10:13:33.607Z,23.71
2023-06-25T10:16:02.838Z,23.93
2023-06-25T10:18:30.231Z,23.82
2023-06-25T10:20:58.659Z,23.90
2023-06-25T10:23:27.280Z,23.98
2023-06-25T10:26:00.581Z,24.13
2023-06-25T10:28:34.262Z,24.20
2023-06-25T10:31:15.569Z,24.12
2023-06-25T10:33:44.151Z,24.24
2023-06-25T10:36:13.486Z,24.38
2023-06-25T10:38:40.916Z,24.44
2023-06-25T10:41:08.170Z,24.35
2023-06-25T10:43:37.755Z,24.35
2023-06-25T10:46:05.580Z,24.46
2023-06-25T10:48:32.837Z,24.49
2023-06-25T10:51:00.069Z,24.39
2023-06-25T10:53:27.224Z,24.40
2023-06-25T10:55:54.933Z,24.31
2023-06-25T10:58:25.899Z,24.28
2023-06-25T11:00:57.514Z,24.33
2023-06-25T11:03:28.222Z,24.42
2023-06-25T11:05:58.458Z,24.45
2023-06-25T11:08:26.086Z,24.59
2023-06-25T11:10:53.782Z,24.76
2023-06-25T11:13:21.102Z,25.01
2023-06-25T11:15:49.330Z,25.13
2023-06-25T11:18:16.796Z,25.13
2023-06-25T11:20:45.040Z,25.11
2023-06-25T11:23:15.418Z,25.12
2023-06-25T11:25:42.791Z,24.88
2023-06-25T11:28:13.274Z,24.92
2023-06-25T11:30:41.043Z,24.92
2023-06-25T11:33:12.669Z,25.08
2023-06-25T11:35:40.418Z,25.34
2023-06-25T11:38:08.685Z,25.63
2023-06-25T11:40:38.313Z,25.69
2023-06-25T11:43:05.317Z,25.83
2023-06-25T11:45:45.294Z,25.93
2023-06-25T11:48:16.528Z,26.04
2023-06-25T11:50:47.894Z,25.79
2023-06-25T11:53:16.105Z,25.47
2023-06-25T11:55:43.501Z,25.45
2023-06-25T11:58:11.320Z,25.44
2023-06-25T12:00:40.816Z,25.52
2023-06-25T12:03:09.910Z,25.57
2023-06-25T12:05:37.648Z,25.60
2023-06-25T12:08:05.397Z,25.74
2023-06-25T12:10:32.790Z,25.81
2023-06-25T12:13:00.397Z,25.95
2023-06-25T12:15:27.404Z,25.84
2023-06-25T12:17:54.742Z,25.85
2023-06-25T12:20:21.994Z,25.98
2023-06-25T12:22:48.916Z,25.88
2023-06-25T12:25:15.879Z,25.59
2023-06-25T12:27:42.684Z,25.30
2023-06-25T12:30:09.949Z,25.13
2023-06-25T12:32:37.084Z,25.06
2023-06-25T12:35:04.364Z,25.01
2023-06-25T12:37:31.816Z,24.96
2023-06-25T12:40:01.209Z,25.04
2023-06-25T12:42:28.465Z,25.08
2023-06-25T12:44:55.304Z,25.28
2023-06-25T12:47:22.404Z,25.29
2023-06-25T12:49:49.662Z,25.53
2023-06-25T12:52:18.875Z,25.48
2023-06-25T12:54:46.208Z,25.53
2023-06-25T12:57:13.434Z,25.53
2023-06-25T12:59:40.443Z,25.54
2023-06-25T13:02:08.037Z,25.44
2023-06-25T13:04:35.802Z,25.30
2023-06-25T13:07:06.685Z,25.21
2023-06-25T13:09:34.228Z,25.12
2023-06-25T13:12:01.332Z,25.01
2023-06-25T13:14:28.333Z,24.90
2023-06-25T13:16:55.732Z,24.81
2023-06-25T13:19:22.790Z,24.82
2023-06-25T13:21:50.088Z,24.86
2023-06-25T13:24:17.208Z,24.85
2023-06-25T13:26:46.211Z,24.85
2023-06-25T13:29:13.356Z,24.83
2023-06-25T13:31:40.730Z,24.90
2023-06-25T13:34:07.912Z,24.88
2023-06-25T13:36:34.794Z,24.91
2023-06-25T13:39:01.851Z,24.95
2023-06-25T13:41:29.079Z,24.96
2023-06-25T13:43:56.404Z,24.96
2023-06-25T13:46:23.803Z,24.95
2023-06-25T13:48:50.882Z,24.88
2023-06-25T13:51:18.382Z,24.86
2023-06-25T13:53:45.726Z,24.86
2023-06-25T13:56:13.008Z,24.87
2023-06-25T13:58:40.217Z,24.92
2023-06-25T14:01:07.820Z,24.92
2023-06-25T14:03:35.407Z,24.92
2023-06-25T14:06:02.575Z,24.93
2023-06-25T14:08:29.596Z,24.90
2023-06-25T14:10:56.619Z,24.94
2023-06-25T14:13:25.758Z,25.07
2023-06-25T14:16:06.016Z,25.18
2023-06-25T14:18:38.104Z,25.20
2023-06-25T14:21:05.283Z,25.23
2023-06-25T14:23:32.229Z,25.38
2023-06-25T14:25:59.501Z,25.48
2023-06-25T14:28:30.068Z,25.63
2023-06-25T14:31:00.728Z,25.82
2023-06-25T14:33:32.212Z,25.83
2023-06-25T14:35:59.205Z,25.86
2023-06-25T14:38:26.292Z,25.89
2023-06-25T14:40:53.162Z,25.85
2023-06-25T14:43:20.221Z,25.78
2023-06-25T14:45:47.021Z,25.72
2023-06-25T14:48:14.082Z,25.73
2023-06-25T14:50:41.307Z,25.73
2023-06-25T14:53:08.487Z,25.72
2023-06-25T14:55:41.113Z,25.68
2023-06-25T14:58:08.646Z,25.60
2023-06-25T15:00:35.886Z,25.53
2023-06-25T15:03:03.559Z,25.73
2023-06-25T15:05:30.635Z,26.30
2023-06-25T15:07:57.479Z,26.56
2023-06-25T15:10:24.533Z,26.99
2023-06-25T15:12:51.388Z,27.21
2023-06-25T15:15:18.586Z,27.08
2023-06-25T15:17:47.664Z,26.77
2023-06-25T15:20:14.639Z,26.59
2023-06-25T15:22:41.713Z,26.46
2023-06-25T15:25:09.018Z,26.70
2023-06-25T15:27:35.973Z,26.49
2023-06-25T15:30:03.776Z,26.36
2023-06-25T15:32:31.050Z,26.27
2023-06-25T15:34:58.247Z,26.11
2023-06-25T15:37:27.655Z,25.99
2023-06-25T15:39:54.642Z,26.21
2023-06-25T15:42:21.486Z,26.58
2023-06-25T15:44:48.324Z,27.00
2023-06-25T15:47:15.160Z,27.25
2023-06-25T15:49:43.426Z,27.53
2023-06-25T15:52:10.306Z,27.55
2023-06-25T15:54:37.492Z,27.65
2023-06-25T15:57:04.414Z,27.85
2023-06-25T15:59:31.943Z,27.71
2023-06-25T16:01:58.932Z,27.50
2023-06-25T16:04:26.128Z,27.37
2023-06-25T16:06:54.324Z,27.67
2023-06-25T16:09:21.153Z,27.98
2023-06-25T16:11:52.338Z,27.96
2023-06-25T16:14:19.219Z,28.03
2023-06-25T16:16:46.071Z,27.98
2023-06-25T16:21:42.739Z,27.55
2023-06-25T16:24:09.628Z,27.78
2023-06-25T16:26:36.462Z,27.96
2023-06-25T16:29:03.606Z,27.96
2023-06-25T16:31:30.495Z,27.76
2023-06-25T16:33:57.421Z,27.63
2023-06-25T16:36:24.410Z,27.83
2023-06-25T16:38:51.218Z,27.80
2023-06-25T16:41:18.046Z,27.89
2023-06-25T16:43:44.923Z,28.18
2023-06-25T16:46:11.793Z,28.31
2023-06-25T16:48:38.656Z,28.32
2023-06-25T16:51:05.581Z,28.26
2023-06-25T16:53:32.462Z,28.38
2023-06-25T16:55:59.585Z,28.43
2023-06-25T16:58:27.231Z,28.28
2023-06-25T17:00:54.346Z,28.36
2023-06-25T17:03:21.391Z,28.45
2023-06-25T17:05:48.332Z,28.45
2023-06-25T17:08:15.218Z,28.14
2023-06-25T17:10:42.398Z,27.49
2023-06-25T17:13:09.446Z,27.40
2023-06-25T17:15:36.512Z,27.17
2023-06-25T17:18:03.706Z,26.96
2023-06-25T17:20:30.608Z,26.64
2023-06-25T17:22:57.545Z,26.32
2023-06-25T17:25:24.401Z,26.54
2023-06-25T17:27:52.360Z,26.79
2023-06-25T17:30:19.254Z,26.56
2023-06-25T17:32:46.111Z,26.57
2023-06-25T17:35:13.027Z,26.73
2023-06-25T17:37:39.827Z,26.83
2023-06-25T17:40:07.358Z,26.73
2023-06-25T17:42:34.204Z,26.54
2023-06-25T17:45:01.139Z,26.49
2023-06-25T17:47:29.524Z,26.35
2023-06-25T17:49:56.432Z,26.41
2023-06-25T17:52:23.426Z,26.52
2023-06-25T17:54:50.295Z,26.43
2023-06-25T17:57:17.121Z,26.38
2023-06-25T17:59:44.050Z,26.34
2023-06-25T18:02:10.906Z,26.47
2023-06-25T18:04:40.840Z,26.42
2023-06-25T18:07:09.854Z,26.52
2023-06-25T18:09:38.006Z,26.53
2023-06-25T18:12:05.662Z,26.50
2023-06-25T18:14:32.757Z,26.48
2023-06-25T18:16:59.641Z,26.14
2023-06-25T18:19:26.492Z,25.90
2023-06-25T18:21:53.378Z,25.90
2023-06-25T18:24:20.289Z,25.91
2023-06-25T18:26:47.417Z,25.90
2023-06-25T18:29:14.252Z,25.80
2023-06-25T18:31:42.773Z,25.70
2023-06-25T18:34:15.366Z,25.70
2023-06-25T18:36:44.751Z,25.59
2023-06-25T18:39:11.729Z,25.48
2023-06-25T18:41:38.683Z,25.35
2023-06-25T18:44:05.749Z,25.21
2023-06-25T18:46:32.651Z,25.11
2023-06-25T18:48:59.565Z,24.97
2023-06-25T18:51:27.640Z,24.80
2023-06-25T18:53:54.464Z,24.83
2023-06-25T18:56:21.297Z,24.81
2023-06-25T18:58:48.105Z,24.81
2023-06-25T19:01:14.977Z,24.79
2023-06-25T19:03:42.091Z,24.79
2023-06-25T19:06:09.126Z,24.72
2023-06-25T19:08:36.027Z,24.72
2023-06-25T19:11:02.847Z,24.68
2023-06-25T19:13:29.622Z,24.63
2023-06-25T19:16:04.071Z,24.61
2023-06-25T19:18:31.176Z,24.51
2023-06-25T19:20:58.094Z,24.45
2023-06-25T19:23:29.970Z,24.34
2023-06-25T19:26:02.205Z,24.25
2023-06-25T19:28:29.063Z,24.11
2023-06-25T19:30:56.152Z,23.99
2023-06-25T19:33:23.204Z,23.88
2023-06-25T19:35:50.153Z,23.77
2023-06-25T19:38:17.211Z,23.74
2023-06-25T19:40:44.589Z,23.62
2023-06-25T19:43:12.639Z,23.58
2023-06-25T19:45:39.970Z,23.52
2023-06-25T19:48:18.902Z,23.37
2023-06-25T19:50:46.104Z,23.27
2023-06-25T19:53:13.341Z,23.24
2023-06-25T19:55:40.894Z,23.19
2023-06-25T19:58:08.197Z,23.12
2023-06-25T20:00:35.378Z,23.05
2023-06-25T20:03:02.522Z,23.01
2023-06-25T20:05:29.662Z,22.99
2023-06-25T20:07:56.720Z,22.95
2023-06-25T20:10:23.940Z,22.88
2023-06-25T20:12:51.155Z,22.85
2023-06-25T20:15:18.907Z,22.73
2023-06-25T20:17:48.566Z,22.65
2023-06-25T20:20:15.800Z,22.60
2023-06-25T20:22:42.805Z,22.57
2023-06-25T20:25:13.870Z,22.58
2023-06-25T20:27:40.855Z,22.58
2023-06-25T20:30:08.612Z,22.56
2023-06-25T20:32:35.775Z,22.50
2023-06-25T20:35:04.032Z,22.48
2023-06-25T20:37:31.162Z,22.42
2023-06-25T20:39:58.227Z,22.40
2023-06-25T20:42:26.459Z,22.32
2023-06-25T20:44:53.762Z,22.26
2023-06-25T20:47:21.237Z,22.21
2023-06-25T20:49:48.446Z,22.18
2023-06-25T20:52:16.125Z,22.09
2023-06-25T20:54:43.325Z,21.98
2023-06-25T20:57:14.774Z,21.94
2023-06-25T20:59:41.845Z,21.91
2023-06-25T21:02:12.733Z,21.85
2023-06-25T21:04:40.164Z,21.81
2023-06-25T21:07:07.400Z,21.87
2023-06-25T21:09:34.864Z,21.84
2023-06-25T21:12:02.118Z,21.85
2023-06-25T21:14:29.263Z,21.80
2023-06-25T21:16:56.380Z,21.80
2023-06-25T21:19:23.458Z,21.76
2023-06-25T21:21:50.403Z,21.63
2023-06-25T21:24:17.856Z,21.53
2023-06-25T21:26:44.957Z,21.50
2023-06-25T21:29:12.154Z,21.46
2023-06-25T21:31:39.190Z,21.37
2023-06-25T21:34:06.694Z,21.34
2023-06-25T21:36:34.011Z,21.36
2023-06-25T21:39:05.154Z,21.29
2023-06-25T21:41:32.232Z,21.24
2023-06-25T21:43:59.594Z,21.19
2023-06-25T21:46:26.868Z,21.16
2023-06-25T21:48:54.049Z,21.14
2023-06-25T21:51:20.996Z,21.10
2023-06-25T21:53:47.959Z,21.07
2023-06-25T21:56:15.023Z,21.05
2023-06-25T21:58:42.124Z,21.06
2023-06-25T22:01:09.181Z,21.00
2023-06-25T22:03:36.238Z,20.97
2023-06-25T22:06:03.431Z,20.88
2023-06-25T22:08:31.733Z,20.88
2023-06-25T22:10:58.662Z,20.85
2023-06-25T22:13:25.575Z,20.76
2023-06-25T22:15:52.557Z,20.76
2023-06-25T22:18:19.506Z,20.73
2023-06-25T22:20:46.785Z,20.77
2023-06-25T22:23:13.914Z,20.78
2023-06-25T22:25:40.773Z,20.85
2023-06-25T22:28:07.744Z,20.79
2023-06-25T22:30:34.759Z,20.78
2023-06-25T22:33:01.746Z,20.78
2023-06-25T22:35:28.719Z,20.71
2023-06-25T22:37:55.929Z,20.66
2023-06-25T22:40:22.917Z,20.60
2023-06-25T22:42:49.932Z,20.56
2023-06-25T22:45:17.035Z,20.48
2023-06-25T22:47:43.984Z,20.47
2023-06-25T22:50:11.696Z,20.43
2023-06-25T22:52:40.449Z,20.40
2023-06-25T22:55:08.635Z,20.33
2023-06-25T22:57:35.818Z,20.36
2023-06-25T23:00:02.795Z,20.32
2023-06-25T23:02:29.866Z,20.25
2023-06-25T23:04:57.613Z,20.18
2023-06-25T23:07:24.867Z,20.18
2023-06-25T23:09:51.956Z,20.12
2023-06-25T23:12:18.897Z,20.09
2023-06-25T23:14:45.807Z,20.06
2023-06-25T23:17:13.174Z,20.06
2023-06-25T23:19:40.631Z,20.03
2023-06-25T23:22:07.791Z,19.97
2023-06-25T23:24:40.749Z,19.92
2023-06-25T23:27:08.435Z,19.93
2023-06-25T23:29:36.536Z,19.87
2023-06-25T23:32:05.195Z,19.86
2023-06-25T23:34:32.785Z,19.91
2023-06-25T23:37:00.917Z,19.96
2023-06-25T23:39:28.695Z,19.96
2023-06-25T23:41:56.021Z,19.92
2023-06-25T23:44:22.940Z,19.93
2023-06-25T23:46:49.920Z,19.97
2023-06-25T23:49:17.149Z,20.05
2023-06-25T23:51:44.754Z,20.10
2023-06-25T23:54:11.699Z,20.11
2023-06-25T23:56:39.413Z,20.00
2023-06-25T23:59:06.475Z,19.95
